Time;durP1;ratioP1;P1;durP2;ratioP2;P2;SDS_P1;SDS_P2;PMS_P1;PMS_P2;Temp;Humidity;BMP_temperature;BMP_pressure;BME280_temperature;BME280_humidity;BME280_pressure;Samples;Min_cycle;Max_cycle;Signal;HPM_P1;HPM_P2
2024/04/07 00:00:26;;;;;;;9.30;2.50;;;;;;;-147.86;100.00;-17609.17;105859;1254;61934;-46
2024/04/07 00:02:53;;;;;;;7.10;2.30;;;;;;;-147.86;100.00;-17609.17;105734;1254;61343;-49
2024/04/07 00:05:20;;;;;;;6.20;2.10;;;;;;;-147.86;100.00;-17609.17;105824;1257;74339;-46
2024/04/07 00:07:48;;;;;;;3.10;2.10;;;;;;;-147.86;100.00;-17609.17;105822;1258;64777;-49
2024/04/07 00:10:15;;;;;;;4.00;2.40;;;;;;;-147.86;100.00;-17609.17;105802;1254;72545;-51
2024/04/07 00:12:41;;;;;;;3.70;2.20;;;;;;;-147.86;100.00;-17609.17;105806;1260;61184;-49
2024/04/07 00:15:08;;;;;;;4.20;2.50;;;;;;;-147.86;100.00;-17609.17;105761;1253;61218;-46
2024/04/07 00:17:35;;;;;;;6.40;2.30;;;;;;;-147.86;100.00;-17609.17;105795;1259;74364;-45
2024/04/07 00:20:03;;;;;;;6.30;2.40;;;;;;;-147.86;100.00;-17609.17;105827;1254;65484;-46
2024/04/07 00:22:30;;;;;;;7.90;2.10;;;;;;;-147.86;100.00;-17609.17;105823;1254;71117;-45
2024/04/07 00:24:57;;;;;;;4.40;2.20;;;;;;;-147.86;100.00;-17609.17;105799;1254;61615;-48
2024/04/07 00:27:27;;;;;;;4.80;2.50;;;;;;;-147.86;100.00;-17609.17;105798;1253;61350;-48
2024/04/07 00:29:54;;;;;;;10.30;3.00;;;;;;;-147.86;100.00;-17609.17;105827;1257;74600;-46
2024/04/07 00:32:22;;;;;;;6.40;2.70;;;;;;;-147.86;100.00;-17609.17;105656;1254;65452;-46
2024/04/07 00:34:49;;;;;;;9.90;3.50;;;;;;;-147.86;100.00;-17609.17;105846;1257;72355;-48
2024/04/07 00:37:16;;;;;;;10.30;3.20;;;;;;;-147.86;100.00;-17609.17;105796;1254;61141;-46
2024/04/07 00:39:44;;;;;;;6.60;3.00;;;;;;;-147.86;100.00;-17609.17;105855;1254;61349;-46
2024/04/07 00:42:11;;;;;;;11.40;3.20;;;;;;;-147.86;100.00;-17609.17;105771;1254;74489;-48
2024/04/07 00:44:38;;;;;;;7.10;3.10;;;;;;;-147.86;100.00;-17609.17;105837;1254;64496;-48
2024/04/07 00:47:05;;;;;;;9.90;3.10;;;;;;;-147.86;100.00;-17609.17;105782;1258;72574;-46
2024/04/07 00:49:33;;;;;;;6.20;3.10;;;;;;;-147.86;100.00;-17609.17;105793;1258;61917;-46
2024/04/07 00:52:01;;;;;;;4.60;3.00;;;;;;;-147.86;100.00;-17609.17;105799;1253;61240;-47
2024/04/07 00:54:28;;;;;;;4.20;3.40;;;;;;;-147.86;100.00;-17609.17;105830;1254;74639;-47
2024/04/07 00:56:54;;;;;;;6.90;3.40;;;;;;;-147.86;100.00;-17609.17;105666;1259;65486;-50
2024/04/07 00:59:22;;;;;;;12.20;3.20;;;;;;;-147.86;100.00;-17609.17;105741;1259;72781;-44
2024/04/07 01:01:49;;;;;;;5.80;3.60;;;;;;;-147.86;100.00;-17609.17;105802;1254;61946;-50
2024/04/07 01:04:16;;;;;;;9.00;3.20;;;;;;;-147.86;100.00;-17609.17;105688;1254;61266;-44
2024/04/07 01:06:43;;;;;;;6.10;3.60;;;;;;;-147.86;100.00;-17609.17;105791;1258;74526;-45
2024/04/07 01:09:10;;;;;;;9.80;3.30;;;;;;;-147.86;100.00;-17609.17;105861;1258;65231;-46
2024/04/07 01:11:37;;;;;;;7.90;3.10;;;;;;;-147.86;100.00;-17609.17;105843;1257;72604;-47
2024/04/07 01:14:04;;;;;;;7.00;3.30;;;;;;;-147.86;100.00;-17609.17;105841;1254;61951;-44
2024/04/07 01:16:31;;;;;;;6.10;3.40;;;;;;;-147.86;100.00;-17609.17;105774;1254;61241;-45
2024/04/07 01:18:58;;;;;;;8.40;3.20;;;;;;;-147.86;100.00;-17609.17;105766;1259;74564;-44
2024/04/07 01:21:24;;;;;;;5.90;3.00;;;;;;;-147.86;100.00;-17609.17;105838;1257;65291;-48
2024/04/07 01:23:51;;;;;;;9.00;3.70;;;;;;;-147.86;100.00;-17609.17;105870;1254;72548;-48
2024/04/07 01:26:18;;;;;;;7.10;3.00;;;;;;;-147.86;100.00;-17609.17;105798;1253;61224;-48
2024/04/07 01:28:45;;;;;;;6.50;3.60;;;;;;;-147.86;100.00;-17609.17;105817;1254;61250;-50
2024/04/07 01:31:12;;;;;;;4.50;3.30;;;;;;;-147.86;100.00;-17609.17;105818;1257;74663;-49
2024/04/07 01:33:39;;;;;;;7.90;3.30;;;;;;;-147.86;100.00;-17609.17;105839;1254;65512;-46
2024/04/07 01:36:06;;;;;;;9.00;3.30;;;;;;;-147.86;100.00;-17609.17;105865;1254;72381;-48
2024/04/07 01:38:33;;;;;;;5.90;3.50;;;;;;;-147.86;100.00;-17609.17;105824;1259;61238;-48
2024/04/07 01:40:59;;;;;;;7.70;3.60;;;;;;;-147.86;100.00;-17609.17;105755;1254;61209;-46
2024/04/07 01:43:26;;;;;;;13.00;4.00;;;;;;;-147.86;100.00;-17609.17;105754;1257;74512;-49
2024/04/07 01:45:53;;;;;;;10.10;3.80;;;;;;;-147.86;100.00;-17609.17;105828;1254;64656;-50
2024/04/07 01:48:20;;;;;;;11.30;3.50;;;;;;;-147.86;100.00;-17609.17;105746;1254;72470;-49
2024/04/07 01:50:49;;;;;;;12.90;4.40;;;;;;;-147.86;100.00;-17609.17;105755;1258;61217;-49
2024/04/07 01:53:16;;;;;;;5.70;3.60;;;;;;;-147.86;100.00;-17609.17;105809;1254;61274;-48
2024/04/07 01:55:43;;;;;;;11.10;3.30;;;;;;;-147.86;100.00;-17609.17;105863;1257;74617;-50
2024/04/07 01:58:10;;;;;;;5.50;3.60;;;;;;;-147.86;100.00;-17609.17;105804;1258;65358;-46
2024/04/07 02:00:37;;;;;;;5.90;3.40;;;;;;;-147.86;100.00;-17609.17;105803;1254;70484;-48
2024/04/07 02:03:04;;;;;;;7.10;3.50;;;;;;;-147.86;100.00;-17609.17;105782;1254;61225;-49
2024/04/07 02:05:31;;;;;;;10.20;3.70;;;;;;;-147.86;100.00;-17609.17;105807;1254;61244;-50
2024/04/07 02:07:58;;;;;;;7.40;4.20;;;;;;;-147.86;100.00;-17609.17;105820;1259;74649;-51
2024/04/07 02:10:25;;;;;;;11.30;3.90;;;;;;;-147.86;100.00;-17609.17;105793;1254;64727;-51
2024/04/07 02:12:52;;;;;;;6.50;3.60;;;;;;;-147.86;100.00;-17609.17;105752;1257;72650;-45
2024/04/07 02:15:20;;;;;;;10.00;3.00;;;;;;;-147.86;100.00;-17609.17;105806;1254;61954;-47
2024/04/07 02:17:47;;;;;;;9.80;3.10;;;;;;;-147.86;100.00;-17609.17;105831;1254;61289;-45
2024/04/07 02:20:16;;;;;;;8.60;3.50;;;;;;;-147.86;100.00;-17609.17;105786;1257;74466;-44
2024/04/07 02:22:43;;;;;;;6.80;3.20;;;;;;;-147.86;100.00;-17609.17;105890;1257;65522;-46
2024/04/07 02:25:10;;;;;;;14.30;3.70;;;;;;;-147.86;100.00;-17609.17;105784;1254;72499;-43
2024/04/07 02:27:38;;;;;;;7.40;3.60;;;;;;;-147.86;100.00;-17609.17;105809;1254;61867;-46
2024/04/07 02:30:05;;;;;;;8.40;3.60;;;;;;;-147.86;100.00;-17609.17;105843;1254;61273;-49
2024/04/07 02:32:32;;;;;;;14.10;4.50;;;;;;;-147.86;100.00;-17609.17;105819;1254;73353;-52
2024/04/07 02:34:59;;;;;;;8.70;4.30;;;;;;;-147.86;100.00;-17609.17;105814;1257;65654;-48
2024/04/07 02:37:27;;;;;;;9.20;4.20;;;;;;;-147.86;100.00;-17609.17;105811;1257;72387;-47
2024/04/07 02:39:53;;;;;;;6.30;4.50;;;;;;;-147.86;100.00;-17609.17;105788;1257;61109;-48
2024/04/07 02:42:20;;;;;;;9.10;5.20;;;;;;;-147.86;100.00;-17609.17;105811;1254;61240;-47
2024/04/07 02:50:19;;;;;;;10.10;5.20;;;;;;;-147.86;100.00;-17609.17;105842;1254;72670;-45
2024/04/07 02:52:46;;;;;;;13.80;4.60;;;;;;;-147.86;100.00;-17609.17;105844;1253;61697;-44
2024/04/07 02:55:13;;;;;;;8.20;4.90;;;;;;;-147.86;100.00;-17609.17;105846;1254;61266;-47
2024/04/07 02:57:40;;;;;;;7.70;4.70;;;;;;;-147.86;100.00;-17609.17;105823;1258;74476;-45
2024/04/07 03:00:11;;;;;;;5.70;4.20;;;;;;;-147.86;100.00;-17609.17;105758;1256;65406;-46
2024/04/07 03:02:38;;;;;;;9.30;4.10;;;;;;;-147.86;100.00;-17609.17;105783;1260;72539;-50
2024/04/07 03:05:05;;;;;;;11.00;4.80;;;;;;;-147.86;100.00;-17609.17;105825;1254;62067;-44
2024/04/07 03:07:35;;;;;;;7.90;4.70;;;;;;;-147.86;100.00;-17609.17;105879;1254;61244;-48
2024/04/07 03:10:03;;;;;;;9.50;5.10;;;;;;;-147.86;100.00;-17567.34;105945;1256;74897;-49
2024/04/07 03:12:31;;;;;;;9.80;5.40;;;;;;;-147.86;100.00;-17271.46;105869;1254;66004;-45
2024/04/07 03:15:01;;;;;;;12.10;5.70;;;;;;;-147.86;100.00;-16750.68;105845;1260;72671;-48
2024/04/07 03:17:29;;;;;;;10.10;5.90;;;;;;;-147.86;100.00;-16054.26;105889;1254;61999;-47
2024/04/07 03:19:56;;;;;;;13.70;6.30;;;;;;;-147.86;100.00;-15072.28;105831;1260;61225;-49
2024/04/07 03:22:23;;;;;;;9.00;5.60;;;;;;;-147.86;100.00;-14033.72;105814;1259;74621;-46
2024/04/07 03:24:50;;;;;;;10.20;5.40;;;;;;;-147.86;100.00;-12952.42;105827;1254;65437;-50
2024/04/07 03:27:18;;;;;;;9.30;5.50;;;;;;;-147.86;100.00;-11817.16;105841;1259;72630;-44
2024/04/07 03:29:44;;;;;;;7.40;4.90;;;;;;;-147.86;100.00;-10717.09;105917;1257;61240;-48
2024/04/07 03:32:11;;;;;;;9.50;5.80;;;;;;;-147.86;100.00;-9585.03;105885;1261;61246;-46
2024/04/07 03:34:39;;;;;;;8.10;5.90;;;;;;;-147.86;100.00;-8389.25;105922;1254;74495;-46
2024/04/07 03:37:06;;;;;;;8.20;5.20;;;;;;;-147.86;100.00;-7080.24;105835;1254;63455;-49
2024/04/07 03:39:33;;;;;;;13.60;6.10;;;;;;;-147.86;100.00;-5810.22;105846;1254;72582;-49
2024/04/07 03:42:03;;;;;;;9.70;5.30;;;;;;;-147.86;100.00;-4643.45;105854;1253;61666;-48
2024/04/07 03:44:32;;;;;;;15.10;5.90;;;;;;;-147.86;100.00;-3494.12;105876;1254;61161;-47
2024/04/07 03:46:58;;;;;;;10.80;5.70;;;;;;;-147.86;100.00;-2261.63;105879;1259;74593;-48
2024/04/07 03:49:26;;;;;;;8.50;5.90;;;;;;;-147.86;100.00;-828.57;105889;1256;65501;-48
2024/04/07 03:51:53;;;;;;;11.80;7.10;;;;;;;-147.86;100.00;543.43;105927;1254;72641;-48
2024/04/07 03:54:20;;;;;;;16.40;6.10;;;;;;;-147.86;100.00;1912.82;105896;1253;61946;-47
2024/04/07 03:56:47;;;;;;;11.00;6.90;;;;;;;-147.86;100.00;3158.66;105826;1260;61247;-48
2024/04/07 03:59:14;;;;;;;13.20;6.20;;;;;;;-147.86;100.00;4175.40;105653;1254;270480;-45
2024/04/07 04:03:46;;;;;;;10.50;6.00;;;;;;;-147.86;100.00;5104.30;103497;1283;615866;-46
2024/04/07 04:06:13;;;;;;;15.00;5.50;;;;;;;-147.86;100.00;-13948.53;105172;1267;62241;-46
2024/04/07 04:08:40;;;;;;;19.90;6.10;;;;;;;-147.86;100.00;-8934.22;105151;1264;60220;-46
2024/04/07 04:11:08;;;;;;;10.00;5.80;;;;;;;-147.86;100.00;-4740.78;105117;1264;72978;-49
2024/04/07 04:13:36;;;;;;;10.30;5.80;;;;;;;-147.86;100.00;-1545.86;105175;1269;64516;-52
2024/04/07 04:16:03;;;;;;;9.70;6.10;;;;;;;-147.86;100.00;1014.08;105000;1264;252879;-46
2024/04/07 04:18:32;;;;;;;7.50;5.90;;;;;;;-147.86;100.00;3128.47;105243;1266;61756;-41
2024/04/07 04:20:58;;;;;;;13.30;5.30;;;;;;;-147.86;100.00;4901.23;105221;1264;59985;-47
2024/04/07 04:23:25;;;;;;;11.10;6.30;;;;;;;-147.86;100.00;6329.55;105195;1264;72973;-48
2024/04/07 04:25:55;;;;;;;9.30;5.90;;;;;;;-147.86;100.00;7513.57;105267;1266;65460;-50
2024/04/07 04:28:22;;;;;;;17.00;6.30;;;;;;;-147.86;100.00;8220.59;105233;1264;72401;-44
2024/04/07 04:30:56;;;;;;;13.60;6.70;;;;;;;-147.86;100.00;8751.51;105195;1266;61789;-45
2024/04/07 04:33:25;;;;;;;12.60;6.30;;;;;;;-147.86;100.00;8726.29;105235;1262;60466;-50
2024/04/07 04:35:52;;;;;;;12.10;6.00;;;;;;;-147.86;100.00;8751.89;105238;1264;73783;-46
2024/04/07 04:38:19;;;;;;;13.30;6.60;;;;;;;-147.86;100.00;8453.41;105241;1266;65962;-50
2024/04/07 04:40:53;;;;;;;12.60;6.10;;;;;;;-147.86;100.00;8036.99;105212;1264;72612;-47
2024/04/07 04:43:20;;;;;;;8.80;5.90;;;;;;;-147.86;100.00;7261.34;105186;1262;60542;-44
2024/04/07 04:46:10;;;;;;;9.60;6.50;;;;;;;-147.86;100.00;6702.67;105250;1264;60430;-46
2024/04/07 04:48:38;;;;;;;11.10;6.60;;;;;;;-147.86;100.00;4801.54;105209;1266;73691;-46
2024/04/07 04:51:05;;;;;;;10.40;6.40;;;;;;;-147.86;100.00;3424.10;105191;1264;65497;-48
2024/04/07 04:53:31;;;;;;;10.20;6.60;;;;;;;-147.86;100.00;1144.52;105177;1264;72470;-50
2024/04/07 04:55:59;;;;;;;9.80;7.00;;;;;;;-147.86;100.00;-1012.55;105231;1266;60799;-50
2024/04/07 04:58:27;;;;;;;10.20;7.30;;;;;;;-147.86;100.00;-3352.19;105290;1264;60424;-50
2024/04/07 05:00:54;;;;;;;9.90;6.30;;;;;;;-147.86;100.00;-6361.24;105253;1266;73794;-50
2024/04/07 05:03:20;;;;;;;9.70;6.40;;;;;;;-147.86;100.00;-9566.13;105190;1262;65330;-46
2024/04/07 05:05:47;;;;;;;12.00;6.10;;;;;;;-147.86;100.00;-12742.83;105205;1264;72599;-44
2024/04/07 05:08:15;;;;;;;10.00;6.30;;;;;;;-147.86;100.00;-16404.76;105207;1266;60428;-46
2024/04/07 05:10:42;;;;;;;8.70;6.50;;;;;;;-147.86;100.00;-17609.17;106000;1251;60412;-44
2024/04/07 05:13:08;;;;;;;9.10;6.90;;;;;;;-147.86;100.00;-17609.17;105993;1251;73706;-47
2024/04/07 05:15:36;;;;;;;12.20;6.30;;;;;;;-147.86;100.00;-17609.17;105962;1255;64689;-47
2024/04/07 05:18:03;;;;;;;9.10;5.90;;;;;;;-147.86;100.00;-17609.17;105947;1255;72341;-50
2024/04/07 05:20:30;;;;;;;10.40;6.40;;;;;;;-147.86;100.00;-17609.17;105976;1256;60422;-47
2024/04/07 05:22:57;;;;;;;9.50;6.60;;;;;;;-147.86;100.00;-17609.17;105965;1251;60527;-48
2024/04/07 05:25:25;;;;;;;6.90;5.90;;;;;;;-147.86;100.00;-17609.17;105933;1252;73545;-47
2024/04/07 05:27:52;;;;;;;10.60;6.50;;;;;;;-147.86;100.00;-17609.17;105997;1251;65293;-48
2024/04/07 05:30:19;;;;;;;6.20;5.50;;;;;;;-147.86;100.00;-17609.17;106016;1254;72602;-50
2024/04/07 05:32:46;;;;;;;10.00;6.90;;;;;;;-147.86;100.00;-17609.17;105962;1256;60367;-47
2024/04/07 05:35:13;;;;;;;10.70;6.60;;;;;;;-147.86;100.00;-17609.17;105986;1251;60405;-50
2024/04/07 05:37:40;;;;;;;9.50;6.40;;;;;;;-147.86;100.00;-17609.17;105995;1256;73814;-52
2024/04/07 05:40:08;;;;;;;11.60;6.70;;;;;;;-147.86;100.00;-17609.17;105972;1255;64660;-49
2024/04/07 05:42:35;;;;;;;14.10;7.20;;;;;;;-147.86;100.00;-17609.17;105996;1256;72611;-49
2024/04/07 05:45:03;;;;;;;7.20;6.40;;;;;;;-147.86;100.00;-17609.17;105939;1255;60485;-46
2024/04/07 05:47:30;;;;;;;15.50;7.80;;;;;;;-147.86;100.00;-17609.17;105996;1251;60443;-53
2024/04/07 05:49:57;;;;;;;13.30;6.40;;;;;;;-147.86;100.00;-17609.17;105972;1253;73843;-47
2024/04/07 05:52:24;;;;;;;14.30;7.00;;;;;;;-147.86;100.00;-17609.17;105951;1251;64765;-44
2024/04/07 05:54:52;;;;;;;11.60;7.60;;;;;;;-147.86;100.00;-17609.17;105964;1251;72446;-48
2024/04/07 05:57:19;;;;;;;9.70;6.40;;;;;;;-147.86;100.00;-17609.17;105984;1256;60322;-45
2024/04/07 05:59:48;;;;;;;13.50;6.60;;;;;;;-147.86;100.00;-17609.17;105995;1251;60465;-46
2024/04/07 06:02:15;;;;;;;15.40;7.60;;;;;;;-147.86;100.00;-17609.17;105996;1256;74566;-48
2024/04/07 06:04:45;;;;;;;15.10;7.40;;;;;;;-147.86;100.00;-17609.17;105983;1255;65407;-48
2024/04/07 06:07:12;;;;;;;9.90;7.00;;;;;;;-147.86;100.00;-17609.17;106000;1251;73332;-47
2024/04/07 06:09:39;;;;;;;12.30;7.30;;;;;;;-147.86;100.00;-17609.17;105974;1256;60462;-51
2024/04/07 06:12:07;;;;;;;13.30;8.10;;;;;;;-147.86;100.00;-17609.17;106032;1251;60513;-46
2024/04/07 06:14:33;;;;;;;15.80;7.30;;;;;;;-147.86;100.00;-17609.17;105994;1253;73773;-48
2024/04/07 06:17:00;;;;;;;9.00;7.10;;;;;;;-147.86;100.00;-17609.17;105935;1256;65380;-48
2024/04/07 06:19:27;;;;;;;11.40;7.20;;;;;;;-147.86;100.00;-17609.17;105946;1256;72661;-49
2024/04/07 06:21:54;;;;;;;10.30;6.80;;;;;;;-147.86;100.00;-17609.17;105938;1257;60418;-46
2024/04/07 06:24:20;;;;;;;11.10;7.60;;;;;;;-147.86;100.00;-17609.17;105993;1251;60447;-47
2024/04/07 06:26:47;;;;;;;10.10;7.50;;;;;;;-147.86;100.00;-17609.17;105956;1256;73651;-49
2024/04/07 06:29:14;;;;;;;14.10;7.20;;;;;;;-147.86;100.00;-17609.17;105927;1255;64399;-47
2024/04/07 06:31:41;;;;;;;12.90;7.10;;;;;;;-147.86;100.00;-17609.17;105974;1257;72649;-46
2024/04/07 06:34:08;;;;;;;12.70;7.40;;;;;;;-147.86;100.00;-17609.17;105932;1256;60396;-48
2024/04/07 06:36:35;;;;;;;9.70;7.20;;;;;;;-147.86;100.00;-17609.17;105943;1251;60488;-49
2024/04/07 06:39:03;;;;;;;14.40;7.50;;;;;;;-147.86;100.00;-17609.17;105987;1252;73796;-45
2024/04/07 06:41:30;;;;;;;10.70;7.90;;;;;;;-147.86;100.00;-17609.17;105922;1251;64338;-47
2024/04/07 06:43:56;;;;;;;13.30;7.20;;;;;;;-147.86;100.00;-17609.17;105924;1251;72995;-49
2024/04/07 06:46:23;;;;;;;10.70;7.70;;;;;;;-147.86;100.00;-17609.17;105982;1256;60348;-48
2024/04/07 06:48:50;;;;;;;11.00;8.50;;;;;;;-147.86;100.00;-17609.17;106003;1256;60533;-50
2024/04/07 06:51:17;;;;;;;15.90;8.80;;;;;;;-147.86;100.00;-17609.17;105949;1256;73828;-46
2024/04/07 06:53:44;;;;;;;11.70;8.40;;;;;;;-147.86;100.00;-17609.17;105973;1255;64631;-49
2024/04/07 06:56:11;;;;;;;14.70;8.40;;;;;;;-147.86;100.00;-17609.17;106006;1253;72469;-52
2024/04/07 06:58:38;;;;;;;12.20;8.50;;;;;;;-147.86;100.00;-17609.17;105988;1257;60335;-49
2024/04/07 07:01:05;;;;;;;16.90;8.40;;;;;;;-147.86;100.00;-17609.17;106005;1251;60868;-46
2024/04/07 07:03:32;;;;;;;14.10;8.30;;;;;;;-147.86;100.00;-17609.17;105902;1256;73918;-50
2024/04/07 07:05:59;;;;;;;10.80;6.50;;;;;;;-147.86;100.00;-17609.17;106030;1252;65517;-49
2024/04/07 07:08:26;;;;;;;6.50;5.70;;;;;;;-147.86;100.00;-17609.17;106028;1257;72647;-52
2024/04/07 07:11:03;;;;;;;4.90;4.30;;;;;;;-147.86;100.00;-17609.17;105990;1257;61004;-52
2024/04/07 07:13:36;;;;;;;11.20;5.50;;;;;;;-147.86;100.00;-17609.17;105922;1251;60475;-49
2024/04/07 07:16:06;;;;;;;5.20;3.60;;;;;;;-147.86;100.00;-17609.17;105968;1252;73557;-46
2024/04/07 07:18:36;;;;;;;3.50;2.50;;;;;;;-147.86;100.00;-17609.17;106023;1251;64821;-44
2024/04/07 07:21:06;;;;;;;5.00;3.60;;;;;;;-147.86;100.00;-17609.17;105935;1251;70279;-47
2024/04/07 07:23:35;;;;;;;4.80;3.50;;;;;;;-147.86;100.00;-17609.17;105997;1257;60679;-49
2024/04/07 07:26:02;;;;;;;5.80;2.60;;;;;;;-147.86;100.00;-17609.17;105960;1253;60395;-50
2024/04/07 07:28:30;;;;;;;2.60;2.40;;;;;;;-147.86;100.00;-17609.17;105985;1251;73734;-46
2024/04/07 07:30:57;;;;;;;3.90;3.40;;;;;;;-147.86;100.00;-17609.17;105939;1256;65564;-49
2024/04/07 07:33:24;;;;;;;6.80;3.70;;;;;;;-147.86;100.00;-17609.17;105918;1251;73115;-47
2024/04/07 07:35:51;;;;;;;4.40;4.00;;;;;;;-147.86;100.00;-17609.17;105943;1256;60411;-49
2024/04/07 07:38:18;;;;;;;6.00;4.30;;;;;;;-147.86;100.00;-17609.17;105963;1251;60405;-49
2024/04/07 07:40:47;;;;;;;7.10;5.70;;;;;;;-147.86;100.00;-17609.17;105983;1251;73788;-48
2024/04/07 07:43:13;;;;;;;13.30;6.50;;;;;;;-147.86;100.00;-17609.17;105953;1256;65278;-47
2024/04/07 07:45:40;;;;;;;12.30;8.50;;;;;;;-147.86;100.00;-17609.17;105953;1251;73568;-46
2024/04/07 07:48:07;;;;;;;9.50;8.50;;;;;;;-147.86;100.00;-17609.17;105977;1256;60399;-46
2024/04/07 07:50:38;;;;;;;10.00;7.50;;;;;;;-147.86;100.00;-17609.17;105969;1252;60427;-47
2024/04/07 07:53:08;;;;;;;17.00;7.40;;;;;;;-147.86;100.00;-17609.17;105916;1257;73851;-49
2024/04/07 07:55:35;;;;;;;13.70;8.10;;;;;;;-147.86;100.00;-17609.17;105981;1251;65538;-48
2024/04/07 07:58:02;;;;;;;13.50;10.20;;;;;;;-147.86;100.00;-17609.17;105937;1251;73337;-50
2024/04/07 08:00:29;;;;;;;9.90;6.90;;;;;;;-147.86;100.00;-17609.17;105987;1256;60674;-49
2024/04/07 08:02:56;;;;;;;12.10;8.70;;;;;;;-147.86;100.00;-17609.17;105933;1251;60424;-48
2024/04/07 08:05:24;;;;;;;13.50;8.60;;;;;;;-147.86;100.00;-17609.17;105956;1253;74448;-49
2024/04/07 08:07:50;;;;;;;12.70;8.20;;;;;;;-147.86;100.00;-17609.17;105932;1251;65270;-46
2024/04/07 08:10:18;;;;;;;9.70;7.00;;;;;;;-147.86;100.00;-17609.17;105949;1255;73015;-45
2024/04/07 08:12:46;;;;;;;11.70;8.30;;;;;;;-147.86;100.00;-17609.17;105964;1252;61096;-50
2024/04/07 08:15:14;;;;;;;11.90;8.50;;;;;;;-147.86;100.00;-17609.17;105966;1251;61231;-45
2024/04/07 08:17:41;;;;;;;7.90;6.10;;;;;;;-147.86;100.00;-17609.17;105997;1256;74733;-50
2024/04/07 08:20:08;;;;;;;14.50;8.50;;;;;;;-147.86;100.00;-17609.17;105930;1255;64485;-45
2024/04/07 08:22:36;;;;;;;13.60;8.10;;;;;;;-147.86;100.00;-17609.17;105966;1257;71479;-47
2024/04/07 08:25:05;;;;;;;16.60;8.70;;;;;;;-147.86;100.00;-17609.17;105922;1252;61991;-47
2024/04/07 08:27:33;;;;;;;13.10;9.20;;;;;;;-147.86;100.00;-17609.17;106023;1255;61227;-47
2024/04/07 08:30:00;;;;;;;14.60;8.70;;;;;;;-147.86;100.00;-17609.17;105967;1256;75329;-47
2024/04/07 08:32:28;;;;;;;17.20;10.50;;;;;;;-147.86;100.00;-17609.17;106014;1256;65444;-48
2024/04/07 08:34:55;;;;;;;14.40;10.50;;;;;;;-147.86;100.00;-17609.17;105953;1257;72751;-47
2024/04/07 08:37:25;;;;;;;17.30;12.20;;;;;;;-147.86;100.00;-17609.17;105951;1256;61224;-48
2024/04/07 08:39:52;;;;;;;19.40;13.10;;;;;;;-147.86;100.00;-17609.17;106003;1252;61978;-50
2024/04/07 08:42:20;;;;;;;20.10;13.40;;;;;;;-147.86;100.00;-17609.17;105962;1257;74795;-50
2024/04/07 08:44:48;;;;;;;25.90;13.90;;;;;;;-147.86;100.00;-17609.17;105989;1256;66357;-48
2024/04/07 08:47:15;;;;;;;19.20;14.30;;;;;;;-147.86;100.00;-17609.17;105913;1257;72907;-51
2024/04/07 08:49:42;;;;;;;24.80;15.60;;;;;;;-147.86;100.00;-17609.17;105807;1257;61307;-52
2024/04/07 08:52:09;;;;;;;26.20;17.90;;;;;;;-147.86;100.00;-17609.17;105777;1251;61266;-51
2024/04/07 08:54:37;;;;;;;27.00;17.80;;;;;;;-147.86;100.00;-17609.17;105988;1257;74768;-51
2024/04/07 08:57:08;;;;;;;20.60;17.30;;;;;;;-147.86;100.00;-17609.17;105980;1256;64743;-49
2024/04/07 08:59:35;;;;;;;21.70;16.30;;;;;;;-147.86;100.00;-17609.17;106027;1256;72765;-48
2024/04/07 09:02:05;;;;;;;22.10;16.20;;;;;;;-147.86;100.00;-17609.17;105877;1251;61965;-51
2024/04/07 09:04:32;;;;;;;27.60;18.00;;;;;;;-147.86;100.00;-17609.17;106076;1253;61227;-48
2024/04/07 09:07:03;;;;;;;26.80;19.30;;;;;;;-147.86;100.00;-17609.17;105952;1256;74412;-50
2024/04/07 09:09:31;;;;;;;28.50;21.00;;;;;;;-147.86;100.00;-17609.17;105954;1257;64719;-49
2024/04/07 09:12:03;;;;;;;25.60;18.90;;;;;;;-147.86;100.00;-17609.17;105969;1257;72704;-46
2024/04/07 09:14:33;;;;;;;25.40;18.20;;;;;;;-147.86;100.00;-17609.17;105992;1256;62135;-51
2024/04/07 09:17:04;;;;;;;32.80;19.00;;;;;;;-147.86;100.00;-17609.17;105951;1256;61224;-50
2024/04/07 09:19:38;;;;;;;23.70;18.30;;;;;;;-147.86;100.00;-17609.17;105977;1252;75228;-47
2024/04/07 09:22:05;;;;;;;26.90;18.90;;;;;;;-147.86;100.00;-17609.17;105993;1257;65502;-50
2024/04/07 09:24:34;;;;;;;23.20;17.10;;;;;;;-147.86;100.00;-17609.17;106028;1256;71855;-45
2024/04/07 09:27:12;;;;;;;22.60;14.80;;;;;;;-147.86;100.00;-17609.17;105945;1251;62235;-47
2024/04/07 09:29:41;;;;;;;20.80;14.70;;;;;;;-147.86;100.00;-17609.17;105964;1251;61343;-48
2024/04/07 09:32:08;;;;;;;15.90;13.50;;;;;;;-147.86;100.00;-17609.17;106021;1252;74721;-46
2024/04/07 09:34:35;;;;;;;17.90;14.60;;;;;;;-147.86;100.00;-17609.17;105995;1253;64634;-50
2024/04/07 09:37:03;;;;;;;16.60;13.30;;;;;;;-147.86;100.00;-17609.17;105982;1255;73355;-48
2024/04/07 09:39:31;;;;;;;16.40;13.80;;;;;;;-147.86;100.00;-17609.17;105919;1257;61249;-45
2024/04/07 09:42:00;;;;;;;16.90;12.90;;;;;;;-147.86;100.00;-17609.17;105959;1256;61234;-48
2024/04/07 09:44:35;;;;;;;17.10;11.10;;;;;;;-147.86;100.00;-17609.17;106011;1252;74207;-50
2024/04/07 09:47:09;;;;;;;13.20;11.80;;;;;;;-147.86;100.00;-17609.17;105970;1257;65259;-49
2024/04/07 09:49:38;;;;;;;15.30;11.80;;;;;;;-147.86;100.00;-17609.17;106002;1251;72825;-50
2024/04/07 09:52:05;;;;;;;12.70;10.90;;;;;;;-147.86;100.00;-17609.17;105981;1257;61250;-47
2024/04/07 09:54:45;;;;;;;15.60;11.60;;;;;;;-147.86;100.00;-17609.17;105961;1251;61330;-50
2024/04/07 09:57:16;;;;;;;14.80;11.00;;;;;;;-147.86;100.00;-17609.17;105974;1255;74697;-48
2024/04/07 09:59:44;;;;;;;14.60;10.50;;;;;;;-147.86;100.00;-17609.17;105975;1256;65178;-50
2024/04/07 10:02:13;;;;;;;14.60;11.30;;;;;;;-147.86;100.00;-17609.17;105964;1255;72476;-48
2024/04/07 10:04:41;;;;;;;17.60;11.50;;;;;;;-147.86;100.00;-17609.17;105982;1251;61205;-49
2024/04/07 10:07:09;;;;;;;10.70;9.70;;;;;;;-147.86;100.00;-17609.17;105969;1256;61195;-50
2024/04/07 10:09:36;;;;;;;14.20;10.10;;;;;;;-147.86;100.00;-17609.17;105947;1257;74573;-51
2024/04/07 10:12:05;;;;;;;10.60;8.90;;;;;;;-147.86;100.00;-17609.17;106022;1257;65651;-49
2024/04/07 10:14:38;;;;;;;8.90;8.00;;;;;;;-147.86;100.00;-17609.17;105976;1256;72698;-50
2024/04/07 10:17:06;;;;;;;10.60;8.00;;;;;;;-147.86;100.00;-17609.17;105932;1256;61151;-49
2024/04/07 10:19:33;;;;;;;10.40;7.80;;;;;;;-147.86;100.00;-17609.17;105992;1251;61199;-46
2024/04/07 10:22:01;;;;;;;7.70;5.70;;;;;;;-147.86;100.00;-17609.17;105931;1256;74725;-51
2024/04/07 10:24:30;;;;;;;5.70;5.20;;;;;;;-147.86;100.00;-17609.17;105955;1256;66239;-47
2024/04/07 10:26:58;;;;;;;6.60;6.00;;;;;;;-147.86;100.00;-17609.17;105942;1257;73415;-48
2024/04/07 10:29:27;;;;;;;8.60;6.00;;;;;;;-147.86;100.00;-17609.17;105930;1256;61141;-51
2024/04/07 10:31:53;;;;;;;5.90;5.20;;;;;;;-147.86;100.00;-17609.17;105992;1251;61484;-47
2024/04/07 10:34:20;;;;;;;5.70;5.20;;;;;;;-147.86;100.00;-17609.17;105979;1257;74712;-46
2024/04/07 10:36:56;;;;;;;6.50;5.20;;;;;;;-147.86;100.00;-17609.17;105990;1257;64427;-48
2024/04/07 10:39:23;;;;;;;6.00;5.10;;;;;;;-147.86;100.00;-17609.17;106001;1256;72513;-49
2024/04/07 10:41:50;;;;;;;5.10;4.70;;;;;;;-147.86;100.00;-17609.17;105950;1251;61218;-48
2024/04/07 10:44:20;;;;;;;7.10;4.30;;;;;;;-147.86;100.00;-17609.17;106029;1256;61870;-47
2024/04/07 10:46:47;;;;;;;4.50;4.10;;;;;;;-147.86;100.00;-17609.17;105897;1257;74800;-48
2024/04/07 10:49:14;;;;;;;10.00;4.60;;;;;;;-147.86;100.00;-17609.17;105747;1257;66284;-47
2024/04/07 10:51:47;;;;;;;4.00;3.70;;;;;;;-147.86;100.00;-17163.87;105942;1257;73371;-49
2024/04/07 10:54:14;;;;;;;5.90;3.90;;;;;;;-147.86;100.00;-10841.51;105987;1256;61240;-48
2024/04/07 10:56:41;;;;;;;4.00;3.50;;;;;;;-147.86;98.45;-4508.84;105988;1251;61308;-47
2024/04/07 10:59:08;;;;;;;12.20;3.90;;;;;;;-147.86;98.98;989.94;105942;1256;74457;-48